Terminal Aerodrome Forecast
Issued by NWS

Home | Current Version | Previous Version | Text Only | Print | Product List | Glossary On
Versions: 1 2 3 4 5 6 7 8 9 10 11 12 13 14 15
000
FTUS43 KBIS 241100
TAFMOT
TAF
KMOT 241138Z 2412/2512 27010KT P6SM SCT110 OVC150
     FM241500 29009KT P6SM VCSH SCT035 OVC090
     FM241700 31010KT 5SM -RA BR OVC015
     FM242100 32011KT 3SM -RASN BR OVC010
     FM250100 30018G24KT 5SM -SN BR OVC010=

USA.gov is the U.S. government's official web portal to all federal, state and local government web resources and services.